Flight Track Log - Related Links

Times and Time Zones

All times are in EDT time to prevent confusion due to time zone crossing. See the SKW5348 flight status page for this flight to view local times or setup timezone preferences in your user account.

Time Position Orientation Groundspeed Altitude Reporting Facility
EDT Latitude Longitude Course Direction KTS MPH feet Rate Location/Type
Tue 09:12:24 AM 35.2511 -120.6683 141° Southeast 150 173 1,200  Level Los Angeles Center
Tue 09:12:44 AM 35.2611 -120.6872 303° West 187 215 1,500 1,556 Climbing Los Angeles Center
Tue 09:13:45 AM 35.2881 -120.7361 304° West 176 203 3,300 1,721 Climbing Los Angeles Center
Tue 09:14:46 AM 35.2533 -120.7478 195° South 178 205 5,000 1,672 Climbing Los Angeles Center
Tue 09:15:00 AM 35.1163 -120.4277 141° Southeast  Level Estimated
Tue 09:15:47 AM 35.2167 -120.7083 139° Southeast 174 200 6,700  Level Los Angeles Center
Tue 09:16:00 AM 35.0759 -120.3563 132° Southeast  Level Estimated
Tue 09:16:47 AM 35.1808 -120.6672 137° Southeast 176 203 8,300  Level Los Angeles Center
Tue 09:17:00 AM 35.0354 -120.2849 141° Southeast  Level Estimated
Tue 09:17:48 AM 35.1447 -120.6164 131° Southeast 190 219 9,400  Level Los Angeles Center
Tue 09:18:49 AM 35.1042 -120.5614 132° Southeast 210 242 10,800 1,328 Climbing Los Angeles Center
Tue 09:19:50 AM 35.0631 -120.5044 131° Southeast 219 252 12,100 1,279 Climbing Los Angeles Center
Tue 09:20:51 AM 35.0175 -120.4436 132° Southeast 234 269 13,400 1,377 Climbing Los Angeles Center
Tue 09:21:52 AM 34.9706 -120.3800 132° Southeast 249 287 14,900 1,475 Climbing Los Angeles Center
Tue 09:22:53 AM 34.9228 -120.3164 132° Southeast 253 291 16,400 1,438 Climbing Los Angeles Center
Tue 09:23:53 AM 34.8731 -120.2519 133° Southeast 258 297 17,800 1,240 Climbing Los Angeles Center
Tue 09:24:54 AM 34.8247 -120.1869 132° Southeast 258 297 18,900 541 Climbing Los Angeles Center
Tue 09:25:55 AM 34.7708 -120.1164 133° Southeast 281 323 18,900  Level Los Angeles Center
Tue 09:26:56 AM 34.7142 -120.0375 131° Southeast 287 330 18,900  Level Los Angeles Center
Tue 09:27:58 AM 34.6614 -119.9675 132° Southeast 282 325 18,900  Level Los Angeles Center
Tue 09:28:59 AM 34.6086 -119.8981 133° Southeast 281 323 18,900 49 Level Los Angeles Center
Tue 09:30:00 AM 34.5456 -119.8164 133° Southeast 281 323 19,000 49 Climbing Los Angeles Center
Tue 09:31:01 AM 34.4928 -119.7475 133° Southeast 280 322 19,000 -393 Level Los Angeles Center
Tue 09:32:02 AM 34.4506 -119.6664 122° Southeast 284 327 18,200 -885 Descending Los Angeles Center
Tue 09:33:03 AM 34.4081 -119.5869 123° Southeast 282 325 17,200 -1,230 Descending Los Angeles Center
Tue 09:34:04 AM 34.3681 -119.5119 123° Southeast 270 311 15,700 -1,561 Descending Los Angeles Center
Tue 09:35:06 AM 34.3242 -119.4306 123° Southeast 285 328 14,000 -1,610 Descending Los Angeles Center
Tue 09:36:07 AM 34.2800 -119.3469 123° Southeast 291 335 12,400 -1,475 Descending Los Angeles Center
Tue 09:37:08 AM 34.2378 -119.2656 122° Southeast 286 329 11,000 -689 Descending Los Angeles Center
Tue 09:38:09 AM 34.1969 -119.1939 125° Southeast 258 297 11,000  Level Los Angeles Center
Tue 09:39:11 AM 34.1453 -119.1050 125° Southeast 273 314 11,000  Level Los Angeles Center
Tue 09:40:12 AM 34.1061 -119.0242 120° Southeast 278 320 11,000  Level Los Angeles Center
Tue 09:41:14 AM 34.0828 -118.9303 107° East 291 335 11,000 -439 Level Los Angeles Center
Tue 09:42:15 AM 34.0622 -118.8331 104° East 299 344 10,100 -492 Descending Los Angeles Center
Tue 09:43:16 AM 34.0417 -118.7283 103° East 296 341 10,000 -146 Descending Los Angeles Center
Tue 09:44:18 AM 34.0308 -118.6344 98° East 285 328 9,800 -439 Descending Los Angeles Center
Tue 09:45:19 AM 34.0203 -118.5383 98° East 289 333 9,100 -927 Descending Los Angeles Center
Tue 09:46:21 AM 34.0122 -118.4503 96° East 286 329 7,900 -1,122 Descending Los Angeles Center
Tue 09:47:22 AM 34.0328 -118.3606 75° East 280 322 6,800 -1,415 Descending Los Angeles Center
Tue 09:48:24 AM 34.0497 -118.2781 76° East 268 308 5,000 -1,610 Descending Los Angeles Center
Tue 09:49:25 AM 34.0433 -118.1981 95° East 221 254 3,500 -976 Descending Los Angeles Center
Tue 09:50:27 AM 33.9956 -118.1797 162° South 200 230 3,000 -244 Descending Los Angeles Center
Tue 09:51:28 AM 33.9669 -118.2336 237° Southwest 196 226 3,000  Level Los Angeles Center

Login

Don't have an account? Register now (free) for customized features, flight alerts, and more!